createdAt,value
2023-01-19T00:00:32.677Z,17.08
2023-01-19T00:02:35.440Z,20.73
2023-01-19T00:04:38.144Z,14.77
2023-01-19T00:06:40.796Z,14.65
2023-01-19T00:08:44.648Z,19.83
2023-01-19T00:10:51.032Z,16.92
2023-01-19T00:12:53.704Z,17.02
2023-01-19T00:14:56.427Z,18.58
2023-01-19T00:16:59.160Z,17.08
2023-01-19T00:19:01.802Z,18.27
2023-01-19T00:21:04.417Z,17.10
2023-01-19T00:23:08.164Z,15.10
2023-01-19T00:25:11.127Z,17.52
2023-01-19T00:27:15.123Z,19.10
2023-01-19T00:29:17.947Z,18.92
2023-01-19T00:31:21.649Z,12.95
2023-01-19T00:33:24.530Z,21.85
2023-01-19T00:35:27.345Z,17.83
2023-01-19T00:37:29.977Z,14.77
2023-01-19T00:39:32.579Z,14.18
2023-01-19T00:41:51.960Z,17.77
2023-01-19T00:43:56.189Z,18.88
2023-01-19T00:45:58.853Z,19.05
2023-01-19T00:48:01.694Z,18.30
2023-01-19T00:50:04.873Z,16.85
2023-01-19T00:52:07.579Z,15.80
2023-01-19T00:54:10.407Z,14.90
2023-01-19T00:56:13.091Z,13.73
2023-01-19T00:58:15.719Z,16.35
2023-01-19T01:00:21.270Z,20.30
2023-01-19T01:02:24.363Z,18.42
2023-01-19T01:04:27.151Z,15.57
2023-01-19T01:06:29.788Z,18.08
2023-01-19T01:08:32.459Z,16.60
2023-01-19T01:10:35.117Z,16.25
2023-01-19T01:12:38.333Z,18.70
2023-01-19T01:14:41.336Z,21.15
2023-01-19T01:16:45.534Z,17.50
2023-01-19T01:18:48.155Z,17.92
2023-01-19T01:20:50.853Z,14.02
2023-01-19T01:22:54.986Z,15.63
2023-01-19T01:24:58.987Z,15.77
2023-01-19T01:27:01.631Z,20.73
2023-01-19T01:29:05.844Z,16.80
2023-01-19T01:31:08.904Z,20.48
2023-01-19T01:33:13.314Z,15.45
2023-01-19T01:35:16.638Z,15.57
2023-01-19T01:37:19.233Z,16.48
2023-01-19T01:39:22.233Z,18.17
2023-01-19T01:41:26.690Z,19.13
2023-01-19T01:43:44.139Z,16.83
2023-01-19T01:45:47.981Z,17.83
2023-01-19T01:47:52.217Z,17.10
2023-01-19T01:50:00.420Z,16.60
2023-01-19T01:52:04.503Z,20.63
2023-01-19T01:54:14.655Z,17.08
2023-01-19T01:56:20.770Z,20.92
2023-01-19T01:58:23.781Z,16.83
2023-01-19T02:00:26.638Z,16.02
2023-01-19T02:02:49.325Z,13.20
2023-01-19T02:04:58.830Z,18.30
2023-01-19T02:07:19.184Z,15.30
2023-01-19T02:09:40.429Z,16.17
2023-01-19T02:12:01.392Z,15.75
2023-01-19T02:14:05.597Z,13.13
2023-01-19T02:16:09.772Z,19.73
2023-01-19T02:18:12.635Z,13.80
2023-01-19T02:20:17.755Z,15.73
2023-01-19T02:22:31.098Z,20.02
2023-01-19T02:24:35.410Z,17.73
2023-01-19T02:26:40.685Z,16.08
2023-01-19T02:28:48.240Z,21.63
2023-01-19T02:30:51.041Z,19.50
2023-01-19T02:32:53.823Z,21.77
2023-01-19T02:34:56.663Z,18.45
2023-01-19T02:37:06.493Z,15.90
2023-01-19T02:39:10.692Z,16.85
2023-01-19T02:41:20.476Z,22.00
2023-01-19T02:43:25.113Z,17.23
2023-01-19T02:45:28.744Z,21.85
2023-01-19T02:47:38.819Z,20.55
2023-01-19T02:49:41.582Z,18.58
2023-01-19T02:51:45.163Z,19.83
2023-01-19T02:54:02.509Z,16.42
2023-01-19T02:56:19.736Z,17.25
2023-01-19T02:58:32.910Z,13.23
2023-01-19T03:00:45.449Z,17.42
2023-01-19T03:02:59.102Z,15.30
2023-01-19T03:05:17.116Z,18.40
2023-01-19T03:07:25.665Z,17.23
2023-01-19T03:09:33.810Z,17.08
2023-01-19T03:11:41.657Z,21.95
2023-01-19T03:13:50.733Z,25.52
2023-01-19T03:15:58.040Z,16.60
2023-01-19T03:18:03.729Z,21.42
2023-01-19T03:20:09.055Z,16.77
2023-01-19T03:22:14.694Z,19.30
2023-01-19T03:24:19.418Z,16.83
2023-01-19T03:26:25.910Z,18.13
2023-01-19T03:28:31.451Z,16.65
2023-01-19T03:30:40.245Z,17.42
2023-01-19T03:32:49.278Z,12.65
2023-01-19T03:34:53.883Z,13.88
2023-01-19T03:37:02.913Z,13.48
2023-01-19T03:39:09.136Z,14.15
2023-01-19T03:41:16.698Z,15.07
2023-01-19T03:43:20.501Z,19.05
2023-01-19T03:45:24.312Z,18.55
2023-01-19T03:47:28.955Z,19.67
2023-01-19T03:49:32.294Z,16.23
2023-01-19T03:51:39.003Z,16.77
2023-01-19T03:53:41.968Z,12.77
2023-01-19T03:55:48.260Z,19.02
2023-01-19T03:57:50.916Z,17.60
2023-01-19T03:59:54.074Z,22.60
2023-01-19T04:01:56.748Z,19.55
2023-01-19T04:04:01.039Z,16.60
2023-01-19T04:06:03.713Z,17.88
2023-01-19T04:08:07.095Z,10.80
2023-01-19T04:10:12.671Z,13.73
2023-01-19T04:12:15.731Z,18.65
2023-01-19T04:14:18.753Z,21.90
2023-01-19T04:16:21.524Z,18.80
2023-01-19T04:18:24.205Z,17.85
2023-01-19T04:20:29.293Z,19.60
2023-01-19T04:22:32.011Z,19.20
2023-01-19T04:24:34.684Z,16.35
2023-01-19T04:26:37.381Z,17.00
2023-01-19T04:28:40.201Z,18.25
2023-01-19T04:30:42.927Z,17.02
2023-01-19T04:32:45.905Z,16.40
2023-01-19T04:34:48.533Z,18.90
2023-01-19T04:36:52.708Z,14.32
2023-01-19T04:38:55.487Z,18.05
2023-01-19T04:40:58.103Z,23.00
2023-01-19T04:43:01.262Z,18.10
2023-01-19T04:45:04.398Z,18.95
2023-01-19T04:47:07.169Z,18.75
2023-01-19T04:49:09.964Z,18.67
2023-01-19T04:51:12.667Z,19.55
2023-01-19T04:53:18.464Z,18.02
2023-01-19T04:55:21.190Z,18.02
2023-01-19T04:57:24.624Z,15.75
2023-01-19T04:59:27.397Z,17.38
2023-01-19T05:01:30.248Z,12.77
2023-01-19T05:03:32.984Z,18.50
2023-01-19T05:05:35.653Z,18.65
2023-01-19T05:07:38.468Z,18.58
2023-01-19T05:09:42.477Z,18.17
2023-01-19T05:11:45.228Z,19.17
2023-01-19T05:13:48.728Z,19.70
2023-01-19T05:15:52.850Z,19.73
2023-01-19T05:17:57.948Z,25.02
2023-01-19T05:20:00.601Z,16.92
2023-01-19T05:22:03.441Z,19.33
2023-01-19T05:24:06.667Z,17.17
2023-01-19T05:26:10.743Z,17.90
2023-01-19T05:28:13.353Z,16.88
2023-01-19T05:30:16.480Z,11.93
2023-01-19T05:32:19.066Z,18.58
2023-01-19T05:34:21.695Z,14.43
2023-01-19T05:36:24.325Z,18.40
2023-01-19T05:38:35.359Z,19.15
2023-01-19T05:40:38.391Z,14.60
2023-01-19T05:42:42.436Z,18.17
2023-01-19T05:44:45.098Z,14.27
2023-01-19T05:46:47.844Z,14.82
2023-01-19T05:48:50.558Z,19.60
2023-01-19T05:50:58.774Z,18.55
2023-01-19T05:53:02.035Z,16.40
2023-01-19T05:55:05.434Z,20.98
2023-01-19T05:57:08.496Z,19.65
2023-01-19T05:59:12.598Z,22.83
2023-01-19T06:01:15.256Z,21.38
2023-01-19T06:03:18.316Z,17.58
2023-01-19T06:05:21.010Z,18.58
2023-01-19T06:07:24.470Z,17.00
2023-01-19T06:09:28.113Z,18.52
2023-01-19T06:11:30.683Z,15.10
2023-01-19T06:13:33.390Z,15.80
2023-01-19T06:15:37.601Z,15.60
2023-01-19T06:17:40.274Z,17.73
2023-01-19T06:19:42.952Z,15.00
2023-01-19T06:21:49.652Z,18.67
2023-01-19T06:23:52.414Z,17.92
2023-01-19T06:25:55.012Z,15.50
2023-01-19T06:27:57.713Z,18.42
2023-01-19T06:30:00.346Z,15.93
2023-01-19T06:32:04.491Z,17.33
2023-01-19T06:34:07.588Z,16.73
2023-01-19T06:36:10.597Z,12.93
2023-01-19T06:38:14.303Z,13.82
2023-01-19T06:40:17.010Z,13.90
2023-01-19T06:42:19.654Z,15.27
2023-01-19T06:44:22.324Z,11.40
2023-01-19T06:46:26.175Z,13.77
2023-01-19T06:48:30.203Z,15.93
2023-01-19T06:50:32.875Z,15.68
2023-01-19T06:52:42.258Z,11.30
2023-01-19T06:54:45.394Z,12.52
2023-01-19T06:56:48.212Z,11.70
2023-01-19T06:58:53.046Z,10.48
2023-01-19T07:00:56.277Z,13.35
2023-01-19T07:02:59.428Z,11.77
2023-01-19T07:05:03.736Z,11.85
2023-01-19T07:07:06.504Z,15.18
2023-01-19T07:09:11.781Z,12.63
2023-01-19T07:11:26.141Z,12.45
2023-01-19T07:13:34.205Z,11.60
2023-01-19T07:15:37.644Z,14.60
2023-01-19T07:17:41.619Z,13.57
2023-01-19T07:19:44.316Z,13.82
2023-01-19T07:21:48.280Z,12.75
2023-01-19T07:23:51.903Z,12.25
2023-01-19T07:25:54.481Z,12.88
2023-01-19T07:27:58.199Z,11.05
2023-01-19T07:30:01.224Z,11.85
2023-01-19T07:32:03.945Z,11.88
2023-01-19T07:34:06.953Z,10.00
2023-01-19T07:36:10.410Z,10.77
2023-01-19T07:38:14.347Z,13.70
2023-01-19T07:40:17.727Z,14.18
2023-01-19T07:42:20.414Z,16.02
2023-01-19T07:44:23.036Z,10.15
2023-01-19T07:46:25.781Z,16.65
2023-01-19T07:48:29.325Z,10.95
2023-01-19T07:50:32.685Z,17.80
2023-01-19T07:52:35.355Z,10.80
2023-01-19T07:54:39.534Z,12.85
2023-01-19T07:56:42.237Z,11.23
2023-01-19T07:58:44.911Z,10.43
2023-01-19T08:00:47.520Z,14.77
2023-01-19T08:02:51.295Z,9.93
2023-01-19T08:04:53.963Z,10.88
2023-01-19T08:06:57.401Z,11.55
2023-01-19T08:09:00.163Z,6.90
2023-01-19T08:11:04.182Z,12.13
2023-01-19T08:13:06.861Z,10.88
2023-01-19T08:15:10.669Z,12.80
2023-01-19T08:17:14.420Z,10.98
2023-01-19T08:19:19.445Z,10.93
2023-01-19T08:21:22.435Z,12.20
2023-01-19T08:23:25.092Z,9.77
2023-01-19T08:25:32.776Z,14.25
2023-01-19T08:27:36.808Z,11.13
2023-01-19T08:29:39.488Z,8.30
2023-01-19T08:31:42.207Z,10.02
2023-01-19T08:33:44.844Z,9.38
2023-01-19T08:35:51.733Z,10.75
2023-01-19T08:37:54.381Z,11.35
2023-01-19T08:39:56.986Z,9.63
2023-01-19T08:42:00.681Z,10.02
2023-01-19T08:44:04.902Z,11.95
2023-01-19T08:46:07.702Z,8.63
2023-01-19T08:48:10.474Z,14.43
2023-01-19T08:50:13.620Z,8.82
2023-01-19T08:52:16.293Z,11.30
2023-01-19T08:54:20.206Z,11.48
2023-01-19T08:56:22.875Z,13.38
2023-01-19T08:58:25.493Z,10.02
2023-01-19T09:00:31.483Z,9.90
2023-01-19T09:02:34.789Z,11.27
2023-01-19T09:04:38.019Z,11.85
2023-01-19T09:06:40.704Z,11.82
2023-01-19T09:08:43.372Z,9.35
2023-01-19T09:10:47.489Z,9.45
2023-01-19T09:12:50.239Z,7.93
2023-01-19T09:14:52.879Z,8.82
2023-01-19T09:16:56.950Z,9.20
2023-01-19T09:18:59.564Z,9.10
2023-01-19T09:21:03.901Z,9.18
2023-01-19T09:23:06.728Z,8.70
2023-01-19T09:25:10.214Z,11.07
2023-01-19T09:27:12.967Z,7.00
2023-01-19T09:29:15.626Z,8.00
2023-01-19T09:31:18.581Z,10.23
2023-01-19T09:33:23.015Z,10.50
2023-01-19T09:35:25.651Z,8.23
2023-01-19T09:37:28.366Z,8.07
2023-01-19T09:39:31.007Z,9.25
2023-01-19T09:41:36.969Z,8.32
2023-01-19T09:43:43.010Z,9.98
2023-01-19T09:45:50.844Z,9.10
2023-01-19T09:47:55.535Z,10.13
2023-01-19T09:50:04.140Z,8.70
2023-01-19T09:52:09.287Z,9.73
2023-01-19T09:54:14.450Z,12.02
2023-01-19T09:56:20.090Z,10.13
2023-01-19T09:58:24.171Z,9.57
2023-01-19T10:00:30.793Z,9.20
2023-01-19T10:02:38.012Z,7.57
2023-01-19T10:04:42.063Z,7.13
2023-01-19T10:06:48.526Z,9.82
2023-01-19T10:08:58.101Z,9.98
2023-01-19T10:11:00.768Z,9.60
2023-01-19T10:13:20.143Z,11.25
2023-01-19T10:15:31.412Z,9.45
2023-01-19T10:17:44.515Z,8.15
2023-01-19T10:19:52.277Z,9.07
2023-01-19T10:21:58.732Z,7.38
2023-01-19T10:24:07.182Z,6.47
2023-01-19T10:26:14.716Z,7.93
2023-01-19T10:28:20.645Z,7.13
2023-01-19T10:30:26.585Z,6.82
2023-01-19T10:32:32.090Z,8.00
2023-01-19T10:34:34.947Z,8.02
2023-01-19T10:36:40.334Z,8.85
2023-01-19T10:38:45.125Z,8.02
2023-01-19T10:40:53.919Z,9.10
2023-01-19T10:42:57.465Z,6.72
2023-01-19T10:45:00.198Z,7.93
2023-01-19T10:47:03.214Z,6.22
2023-01-19T10:49:07.311Z,7.65
2023-01-19T10:51:11.587Z,9.25
2023-01-19T10:53:22.474Z,7.60
2023-01-19T10:55:29.831Z,7.25
2023-01-19T10:57:36.597Z,8.05
2023-01-19T10:59:50.585Z,5.80
2023-01-19T11:02:04.942Z,7.53
2023-01-19T11:04:22.695Z,8.02
2023-01-19T11:06:29.093Z,7.32
2023-01-19T11:08:32.202Z,7.57
2023-01-19T11:10:36.604Z,9.23
2023-01-19T11:12:42.532Z,10.40
2023-01-19T11:14:45.364Z,7.90
2023-01-19T11:16:51.020Z,9.23
2023-01-19T11:18:55.498Z,9.27
2023-01-19T11:21:01.031Z,11.20
2023-01-19T11:23:17.312Z,9.57
2023-01-19T11:25:30.960Z,9.50
2023-01-19T11:27:37.790Z,7.10
2023-01-19T11:29:40.456Z,9.60
2023-01-19T11:31:43.240Z,8.45
2023-01-19T11:33:51.323Z,10.45
2023-01-19T11:36:03.377Z,10.68
2023-01-19T11:38:18.202Z,8.30
2023-01-19T11:40:21.035Z,6.38
2023-01-19T11:42:24.098Z,7.70
2023-01-19T11:44:32.016Z,9.10
2023-01-19T11:46:36.121Z,7.60
2023-01-19T11:48:43.490Z,7.80
2023-01-19T11:50:47.093Z,8.68
2023-01-19T11:52:56.331Z,8.38
2023-01-19T11:55:04.303Z,6.53
2023-01-19T11:57:13.468Z,9.93
2023-01-19T11:59:16.541Z,7.15
2023-01-19T12:01:24.730Z,8.35
2023-01-19T12:03:32.256Z,8.57
2023-01-19T12:05:37.965Z,6.22
2023-01-19T12:07:41.455Z,8.32
2023-01-19T12:09:47.260Z,9.68
2023-01-19T12:11:55.372Z,8.93
2023-01-19T12:13:58.437Z,8.85
2023-01-19T12:16:05.900Z,8.63
2023-01-19T12:18:17.056Z,7.88
2023-01-19T12:20:28.139Z,7.18
2023-01-19T12:22:38.242Z,7.57
2023-01-19T12:24:45.882Z,7.93
2023-01-19T12:26:54.194Z,10.00
2023-01-19T12:29:01.372Z,9.18
2023-01-19T12:31:05.070Z,11.48
2023-01-19T12:33:39.570Z,8.95
2023-01-19T12:35:56.272Z,8.32
2023-01-19T12:37:58.893Z,8.23
2023-01-19T12:40:05.508Z,8.77
2023-01-19T12:42:14.294Z,8.10
2023-01-19T12:44:24.161Z,8.48
2023-01-19T12:46:30.401Z,9.10
2023-01-19T12:48:33.655Z,7.13
2023-01-19T12:50:39.096Z,10.77
2023-01-19T12:52:49.261Z,7.63
2023-01-19T12:54:56.661Z,8.48
2023-01-19T12:57:03.164Z,6.90
2023-01-19T12:59:06.457Z,7.10
2023-01-19T13:01:18.973Z,8.05
2023-01-19T13:03:45.246Z,8.95
2023-01-19T13:05:54.579Z,8.38
2023-01-19T13:08:17.500Z,9.18
2023-01-19T13:11:10.010Z,8.43
2023-01-19T13:13:23.112Z,9.07
2023-01-19T13:15:34.928Z,7.55
2023-01-19T13:17:49.971Z,6.93
2023-01-19T13:19:59.168Z,6.72
2023-01-19T13:22:41.655Z,8.20
2023-01-19T13:25:06.338Z,6.63
2023-01-19T13:27:14.114Z,10.25
2023-01-19T13:29:22.405Z,9.68
2023-01-19T13:31:27.236Z,6.95
2023-01-19T13:33:40.643Z,10.80
2023-01-19T13:35:52.274Z,10.70
2023-01-19T13:37:59.211Z,9.85
2023-01-19T13:40:03.250Z,6.93
2023-01-19T13:42:08.531Z,7.43
2023-01-19T13:44:17.955Z,11.25
2023-01-19T13:46:21.328Z,7.53
2023-01-19T13:48:25.829Z,12.30
2023-01-19T13:50:30.545Z,8.75
2023-01-19T13:52:33.166Z,8.00
2023-01-19T13:54:37.193Z,9.70
2023-01-19T13:56:41.904Z,9.25
2023-01-19T13:58:44.628Z,7.20
2023-01-19T14:00:47.596Z,8.48
2023-01-19T14:02:56.918Z,6.68
2023-01-19T14:04:59.699Z,7.10
2023-01-19T14:07:05.970Z,8.98
2023-01-19T14:09:19.116Z,8.15
2023-01-19T14:11:23.230Z,8.48
2023-01-19T14:13:29.448Z,10.13
2023-01-19T14:15:35.362Z,9.23
2023-01-19T14:17:38.185Z,11.05
2023-01-19T14:19:51.246Z,9.48
2023-01-19T14:22:02.767Z,8.27
2023-01-19T14:24:10.388Z,8.55
2023-01-19T14:26:46.987Z,8.57
2023-01-19T14:28:49.775Z,10.38
2023-01-19T14:30:56.666Z,7.55
2023-01-19T14:35:23.768Z,9.10
2023-01-19T14:37:29.117Z,7.13
2023-01-19T14:39:34.447Z,8.88
2023-01-19T14:41:41.171Z,13.52
2023-01-19T14:43:46.600Z,6.78
2023-01-19T14:45:49.229Z,9.15
2023-01-19T14:47:57.040Z,9.98
2023-01-19T14:50:07.397Z,10.15
2023-01-19T14:52:22.597Z,9.02
2023-01-19T14:54:32.793Z,8.23
2023-01-19T14:56:36.677Z,9.13
2023-01-19T14:58:39.267Z,10.70
2023-01-19T15:00:44.521Z,8.45
2023-01-19T15:02:48.115Z,7.55
2023-01-19T15:04:55.087Z,8.07
2023-01-19T15:06:57.781Z,8.07
2023-01-19T15:09:00.489Z,10.80
2023-01-19T15:11:10.960Z,8.10
2023-01-19T15:13:19.644Z,7.90
2023-01-19T15:15:33.004Z,7.07
2023-01-19T15:17:37.046Z,7.60
2023-01-19T15:19:39.659Z,7.68
2023-01-19T15:21:42.962Z,7.03
2023-01-19T15:23:45.599Z,7.47
2023-01-19T15:25:48.394Z,9.02
2023-01-19T15:27:51.355Z,7.97
2023-01-19T15:29:54.266Z,7.15
2023-01-19T15:31:57.015Z,7.30
2023-01-19T15:34:00.978Z,9.40
2023-01-19T15:36:05.367Z,8.07
2023-01-19T15:38:08.007Z,6.78
2023-01-19T15:40:12.182Z,9.43
2023-01-19T15:42:16.081Z,8.88
2023-01-19T15:44:18.680Z,8.52
2023-01-19T15:46:22.465Z,7.13
2023-01-19T15:48:25.672Z,7.72
2023-01-19T15:50:29.729Z,10.77
2023-01-19T15:52:32.339Z,8.98
2023-01-19T15:54:34.994Z,8.63
2023-01-19T15:56:37.597Z,7.97
2023-01-19T15:58:40.239Z,8.60
2023-01-19T16:00:43.017Z,11.70
2023-01-19T16:02:45.752Z,9.48
2023-01-19T16:04:49.539Z,7.55
2023-01-19T16:06:53.487Z,7.05
2023-01-19T16:08:59.743Z,8.65
2023-01-19T16:11:05.669Z,8.30
2023-01-19T16:13:08.715Z,9.77
2023-01-19T16:15:12.705Z,7.82
2023-01-19T16:17:15.367Z,9.93
2023-01-19T16:19:19.217Z,8.93
2023-01-19T16:21:22.067Z,6.57
2023-01-19T16:23:26.165Z,12.20
2023-01-19T16:25:28.829Z,8.50
2023-01-19T16:27:31.556Z,7.50
2023-01-19T16:29:34.165Z,8.45
2023-01-19T16:31:37.646Z,7.57
2023-01-19T16:33:40.359Z,7.15
2023-01-19T16:35:42.980Z,7.53
2023-01-19T16:37:45.746Z,7.97
2023-01-19T16:39:52.220Z,6.85
2023-01-19T16:41:54.889Z,8.15
2023-01-19T16:43:59.032Z,6.45
2023-01-19T16:46:04.342Z,9.30
2023-01-19T16:48:07.344Z,7.90
2023-01-19T16:50:12.374Z,33.72
2023-01-19T16:52:15.471Z,8.65
2023-01-19T16:54:20.521Z,6.97
2023-01-19T16:56:24.651Z,7.50
2023-01-19T16:58:27.273Z,7.85
2023-01-19T17:00:29.928Z,8.80
2023-01-19T17:02:32.657Z,6.68
2023-01-19T17:04:35.408Z,6.95
2023-01-19T17:06:38.256Z,8.82
2023-01-19T17:08:41.560Z,11.25
2023-01-19T17:10:44.152Z,8.80
2023-01-19T17:12:48.160Z,8.20
2023-01-19T17:14:50.782Z,11.40
2023-01-19T17:16:53.484Z,11.93
2023-01-19T17:18:58.894Z,10.48
2023-01-19T17:21:02.226Z,10.73
2023-01-19T17:23:04.977Z,11.20
2023-01-19T17:25:08.788Z,9.48
2023-01-19T17:27:11.527Z,12.88
2023-01-19T17:29:16.527Z,10.55
2023-01-19T17:31:20.877Z,9.32
2023-01-19T17:33:25.466Z,10.60
2023-01-19T17:35:28.120Z,6.68
2023-01-19T17:37:30.738Z,8.63
2023-01-19T17:39:33.359Z,8.10
2023-01-19T17:41:36.809Z,9.13
2023-01-19T17:43:39.400Z,8.25
2023-01-19T17:45:43.439Z,11.02
2023-01-19T17:47:49.109Z,9.40
2023-01-19T17:49:51.761Z,8.38
2023-01-19T17:51:55.669Z,8.02
2023-01-19T17:53:59.253Z,8.20
2023-01-19T17:56:04.732Z,20.35
2023-01-19T17:58:07.386Z,18.75
2023-01-19T18:00:11.970Z,12.23
2023-01-19T18:02:16.231Z,9.30
2023-01-19T18:04:19.006Z,9.20
2023-01-19T18:06:22.250Z,9.15
2023-01-19T18:08:24.877Z,10.77
2023-01-19T18:10:27.454Z,11.38
2023-01-19T18:12:30.137Z,9.05
2023-01-19T18:14:32.749Z,12.60
2023-01-19T18:16:57.086Z,10.13
2023-01-19T18:18:59.683Z,16.02
2023-01-19T18:21:03.955Z,13.15
2023-01-19T18:23:06.957Z,10.25
2023-01-19T18:25:10.187Z,10.40
2023-01-19T18:27:13.079Z,10.45
2023-01-19T18:29:16.569Z,9.95
2023-01-19T18:31:20.166Z,9.68
2023-01-19T18:33:24.183Z,10.57
2023-01-19T18:35:28.298Z,11.80
2023-01-19T18:37:31.052Z,8.20
2023-01-19T18:39:33.830Z,12.73
2023-01-19T18:41:41.516Z,12.48
2023-01-19T18:43:44.359Z,10.18
2023-01-19T18:45:48.104Z,13.52
2023-01-19T18:47:50.883Z,14.38
2023-01-19T18:49:54.886Z,16.40
2023-01-19T18:51:57.580Z,18.88
2023-01-19T18:54:00.477Z,17.70
2023-01-19T18:56:04.152Z,25.02
2023-01-19T18:58:07.094Z,16.08
2023-01-19T19:00:11.325Z,13.82
2023-01-19T19:02:14.359Z,11.85
2023-01-19T19:04:17.007Z,16.13
2023-01-19T19:06:21.699Z,17.40
2023-01-19T19:08:24.425Z,18.40
2023-01-19T19:10:27.145Z,16.52
2023-01-19T19:12:29.840Z,14.18
2023-01-19T19:14:33.221Z,36.72
2023-01-19T19:16:38.094Z,48.25
2023-01-19T19:18:41.922Z,59.13
2023-01-19T19:20:44.820Z,32.33
2023-01-19T19:22:49.007Z,23.23
2023-01-19T19:24:51.685Z,47.45
2023-01-19T19:26:54.338Z,26.65
2023-01-19T19:28:57.458Z,22.95
2023-01-19T19:31:04.376Z,20.50
2023-01-19T19:35:12.428Z,20.67
2023-01-19T19:37:15.072Z,11.00
2023-01-19T19:39:19.209Z,12.52
2023-01-19T19:41:23.828Z,13.52
2023-01-19T19:43:26.756Z,9.93
2023-01-19T19:45:29.321Z,16.55
2023-01-19T19:47:32.076Z,15.48
2023-01-19T19:49:34.694Z,18.23
2023-01-19T19:51:37.384Z,15.73
2023-01-19T19:53:40.412Z,15.45
2023-01-19T19:55:44.375Z,12.10
2023-01-19T19:57:47.568Z,14.43
2023-01-19T19:59:50.170Z,18.10
2023-01-19T20:01:54.661Z,17.08
2023-01-19T20:03:58.730Z,11.95
2023-01-19T20:06:04.349Z,11.68
2023-01-19T20:08:07.166Z,10.48
2023-01-19T20:10:11.498Z,12.05
2023-01-19T20:12:15.687Z,15.13
2023-01-19T20:14:18.388Z,14.32
2023-01-19T20:16:23.022Z,12.52
2023-01-19T20:18:25.940Z,12.15
2023-01-19T20:20:28.759Z,14.90
2023-01-19T20:22:31.748Z,15.32
2023-01-19T20:24:34.445Z,14.25
2023-01-19T20:26:41.373Z,13.82
2023-01-19T20:28:46.202Z,12.52
2023-01-19T20:30:48.946Z,10.07
2023-01-19T20:32:52.229Z,14.75
2023-01-19T20:34:54.943Z,15.25
2023-01-19T20:36:57.693Z,12.95
2023-01-19T20:39:00.428Z,15.55
2023-01-19T20:41:03.142Z,13.55
2023-01-19T20:43:06.344Z,12.45
2023-01-19T20:45:11.623Z,12.00
2023-01-19T20:47:14.483Z,10.38
2023-01-19T20:49:17.206Z,14.35
2023-01-19T20:51:20.302Z,12.27
2023-01-19T20:53:23.013Z,15.38
2023-01-19T20:55:25.635Z,12.75
2023-01-19T20:57:28.827Z,11.02
2023-01-19T20:59:31.412Z,12.50
2023-01-19T21:01:35.621Z,12.52
2023-01-19T21:03:38.380Z,12.82
2023-01-19T21:05:41.073Z,11.43
2023-01-19T21:07:43.796Z,10.40
2023-01-19T21:09:46.553Z,10.73
2023-01-19T21:11:49.173Z,10.68
2023-01-19T21:13:55.811Z,11.38
2023-01-19T21:15:59.254Z,13.80
2023-01-19T21:18:03.309Z,15.00
2023-01-19T21:20:07.221Z,13.00
2023-01-19T21:22:09.980Z,13.13
2023-01-19T21:24:12.728Z,14.88
2023-01-19T21:26:15.647Z,14.82
2023-01-19T21:28:19.028Z,14.18
2023-01-19T21:30:22.000Z,13.32
2023-01-19T21:32:24.707Z,15.10
2023-01-19T21:34:28.724Z,15.77
2023-01-19T21:36:31.360Z,13.43
2023-01-19T21:38:36.786Z,14.32
2023-01-19T21:40:39.452Z,12.25
2023-01-19T21:42:42.159Z,14.15
2023-01-19T21:44:44.879Z,13.85
2023-01-19T21:46:47.552Z,14.35
2023-01-19T21:48:50.356Z,14.27
2023-01-19T21:51:00.483Z,14.52
2023-01-19T21:53:03.497Z,15.90
2023-01-19T21:55:07.069Z,12.93
2023-01-19T21:57:09.736Z,15.02
2023-01-19T21:59:14.812Z,17.23
2023-01-19T22:01:17.715Z,24.38
2023-01-19T22:03:20.392Z,19.60
2023-01-19T22:05:23.059Z,15.30
2023-01-19T22:07:27.101Z,13.00
2023-01-19T22:09:29.674Z,16.10
2023-01-19T22:11:32.589Z,16.60
2023-01-19T22:13:36.150Z,14.63
2023-01-19T22:15:38.788Z,14.48
2023-01-19T22:17:41.485Z,16.45
2023-01-19T22:19:44.133Z,20.15
2023-01-19T22:21:47.080Z,15.43
2023-01-19T22:23:52.330Z,17.58
2023-01-19T22:25:55.042Z,15.23
2023-01-19T22:27:58.719Z,16.55
2023-01-19T22:30:01.315Z,16.05
2023-01-19T22:32:04.050Z,17.30
2023-01-19T22:34:10.055Z,15.60
2023-01-19T22:36:15.922Z,19.17
2023-01-19T22:38:18.683Z,15.13
2023-01-19T22:40:22.756Z,18.42
2023-01-19T22:42:25.416Z,15.40
2023-01-19T22:44:28.210Z,14.95
2023-01-19T22:46:33.246Z,16.15
2023-01-19T22:48:36.000Z,16.27
2023-01-19T22:50:38.673Z,18.67
2023-01-19T22:52:42.423Z,13.85
2023-01-19T22:54:45.058Z,16.85
2023-01-19T22:56:49.172Z,14.65
2023-01-19T22:58:52.533Z,19.77
2023-01-19T23:00:55.183Z,14.68
2023-01-19T23:02:57.956Z,18.83
2023-01-19T23:05:00.739Z,14.43
2023-01-19T23:07:03.348Z,14.98
2023-01-19T23:09:08.470Z,14.30
2023-01-19T23:11:13.260Z,18.08
2023-01-19T23:13:17.177Z,13.27
2023-01-19T23:15:19.889Z,14.10
2023-01-19T23:17:22.541Z,19.30
2023-01-19T23:19:25.215Z,13.65
2023-01-19T23:21:29.987Z,17.63
2023-01-19T23:23:33.225Z,16.80
2023-01-19T23:25:35.942Z,17.23
2023-01-19T23:27:38.683Z,15.60
2023-01-19T23:29:42.691Z,16.75
2023-01-19T23:31:47.490Z,18.52
2023-01-19T23:33:51.166Z,15.00
2023-01-19T23:35:55.825Z,15.98
2023-01-19T23:37:58.868Z,16.10
2023-01-19T23:40:01.502Z,15.98
2023-01-19T23:42:05.129Z,14.43
2023-01-19T23:44:08.024Z,14.57
2023-01-19T23:46:12.925Z,13.77
2023-01-19T23:48:15.719Z,13.27
2023-01-19T23:50:19.022Z,16.52
2023-01-19T23:52:21.797Z,13.23
2023-01-19T23:54:24.359Z,12.93
2023-01-19T23:56:28.941Z,13.55
2023-01-19T23:58:31.580Z,17.38
